Flight Track Log - Related Links

Times and Time Zones

All times are in EDT time to prevent confusion due to time zone crossing. See the XOJ795 flight status page for this flight to view local times or setup timezone preferences in your user account.

Time Position Orientation Groundspeed Altitude Reporting Facility
EDT Latitude Longitude Course Direction KTS MPH feet Rate Location/Type
Fri 11:52:57 AM 26.7419 -80.1925 42° Northeast 210 242 8,100  Level Miami Center
Fri 11:53:57 AM 26.7753 -80.1072 66° East 235 270 10,700 2,700 Climbing Miami Center
Fri 11:54:57 AM 26.8172 -80.0036 66° East 310 357 13,500 1,650 Climbing Miami Center
Fri 11:55:57 AM 26.8550 -79.9022 67° East 342 394 14,000 250 Climbing Miami Center
Fri 11:56:57 AM 26.9092 -79.8011 59° Northeast 357 411 14,000  Level Miami Center
Fri 11:57:00 AM 27.1046 -79.4068 48° Northeast  Level FlightAware Approximate
Fri 11:57:57 AM 26.9692 -79.7233 49° Northeast 370 426 14,000  Level Miami Center
Fri 11:58:00 AM 27.1769 -79.2897 42° Northeast  Level FlightAware Approximate
Fri 11:58:57 AM 27.0500 -79.6486 39° Northeast 359 413 14,000  Level Miami Center
Fri 11:59:57 AM 27.1394 -79.5667 39° Northeast 372 428 16,800 2,950 Climbing Miami Center
Fri 12:00:57 PM 27.2200 -79.4914 40° Northeast 378 435 19,900 2,650 Climbing Miami Center
Fri 12:01:57 PM 27.3044 -79.4442 26° Northeast 371 427 22,100 1,550 Climbing Miami Center
Fri 12:02:57 PM 27.4114 -79.4139 14° North 380 437 23,000 1,250 Climbing Miami Center
Fri 12:03:57 PM 27.5331 -79.3814 13° North 403 464 24,600 1,800 Climbing Miami Center
Fri 12:04:57 PM 27.6486 -79.3536 12° North 413 475 26,600 1,950 Climbing Miami Center
Fri 12:05:57 PM 27.7681 -79.3233 13° North 418 481 28,500 1,800 Climbing Miami Center
Fri 12:06:57 PM 27.8728 -79.2950 13° North 423 487 30,200 1,650 Climbing Miami Center
Fri 12:07:57 PM 27.9944 -79.2647 12° North 433 498 31,800 1,550 Climbing Miami Center
Fri 12:08:57 PM 28.1181 -79.2319 13° North 439 505 33,300 1,500 Climbing Miami Center
Fri 12:09:57 PM 28.2439 -79.1992 13° North 453 521 34,800 1,600 Climbing Miami Center
Fri 12:10:57 PM 28.3739 -79.1667 12° North 458 527 36,500 1,700 Climbing Miami Center
Fri 12:11:57 PM 28.5081 -79.1314 13° North 471 542 38,200 1,500 Climbing Miami Center
Fri 12:12:57 PM 28.6381 -79.0986 12° North 471 542 39,500 1,350 Climbing Miami Center
Fri 12:13:57 PM 28.7742 -79.0658 12° North 476 548 40,900 1,350 Climbing Miami Center
Fri 12:14:57 PM 28.9061 -79.0306 13° North 481 554 42,200 1,100 Climbing Miami Center
Fri 12:15:57 PM 29.0403 -78.9953 13° North 486 559 43,100 700 Climbing Miami Center
Fri 12:16:57 PM 29.1783 -78.9575 13° North 491 565 43,600 500 Climbing Miami Center
Fri 12:17:57 PM 29.3186 -78.9222 12° North 497 572 44,100 500 Climbing Miami Center
Fri 12:18:57 PM 29.4528 -78.8817 15° North 497 572 44,600 175 Climbing Miami Center
Fri 12:22:32 PM 29.9547 -78.7456 13° North 532 612 44,900 65 Climbing Jacksonville Center
Fri 12:23:32 PM 30.1019 -78.7081 12° North 524 603 44,900 50 Level Jacksonville Center
Fri 12:24:32 PM 30.2447 -78.6706 13° North 519 597 45,000 150 Climbing Jacksonville Center
Fri 12:25:32 PM 30.3811 -78.6333 13° North 501 577 45,200 300 Climbing Jacksonville Center
Fri 12:26:32 PM 30.5239 -78.5956 13° North 509 586 45,600 350 Climbing Jacksonville Center
Fri 12:27:32 PM 30.6625 -78.5603 12° North 509 586 45,900 250 Climbing Jacksonville Center
Fri 12:28:32 PM 30.8011 -78.5225 13° North 503 579 46,100 250 Climbing Jacksonville Center
Fri 12:29:32 PM 30.9356 -78.4850 13° North 505 581 46,400 200 Climbing Jacksonville Center
Fri 12:30:32 PM 31.0761 -78.4467 13° North 512 589 46,500 100 Climbing Jacksonville Center
Fri 12:31:32 PM 31.2125 -78.4089 13° North 507 583 46,600 100 Climbing Jacksonville Center
Fri 12:32:32 PM 31.3450 -78.3733 13° North 502 578 46,700 150 Climbing Jacksonville Center
Fri 12:33:32 PM 31.4814 -78.3375 13° North 502 578 46,900 100 Climbing Jacksonville Center
Fri 12:34:32 PM 31.6217 -78.2939 15° North 507 583 46,900  Level Jacksonville Center
Fri 12:35:32 PM 31.7703 -78.2425 16° North 502 578 46,900  Level Jacksonville Center
Fri 12:36:32 PM 31.9069 -78.2136 10° North 497 572 46,900  Level Jacksonville Center
Fri 12:37:32 PM 32.0453 -78.1747 13° North 502 578 46,900  Level Jacksonville Center
Fri 12:38:32 PM 32.1817 -78.1358 14° North 502 578 46,900  Level Jacksonville Center
Fri 12:39:32 PM 32.3158 -78.0969 14° North 502 578 46,900  Level Jacksonville Center
Fri 12:40:32 PM 32.4542 -78.0600 13° North 507 583 46,900  Level Jacksonville Center
Fri 12:41:32 PM 32.5906 -78.0208 14° North 507 583 46,900  Level Jacksonville Center
Fri 12:42:32 PM 32.7308 -77.9836 13° North 507 583 46,900  Level Jacksonville Center
Fri 12:43:32 PM 32.8650 -77.9442 14° North 502 578 46,900  Level Jacksonville Center
Fri 12:44:32 PM 33.0033 -77.9044 14° North 502 578 46,900  Level Jacksonville Center
Fri 12:45:32 PM 33.1397 -77.8694 12° North 502 578 46,900  Level Jacksonville Center
Fri 12:47:11 PM 33.3669 -77.8019 14° North 507 583 46,900  Level Washington Center
Fri 12:48:11 PM 33.5033 -77.7633 13° North 507 583 46,900  Level Washington Center
Fri 12:49:11 PM 33.6292 -77.7242 15° North 507 583 46,900  Level Washington Center
Fri 12:50:12 PM 33.7656 -77.6853 13° North 507 583 46,900  Level Washington Center
Fri 12:51:13 PM 33.9061 -77.6411 15° North 507 583 46,900  Level Washington Center
Fri 12:52:11 PM 34.0464 -77.6019 13° North 507 583 46,900  Level Washington Center
Fri 12:53:12 PM 34.1847 -77.5653 12° North 507 583 46,900  Level Washington Center
Fri 12:54:13 PM 34.3189 -77.5258 14° North 502 578 46,900  Level Washington Center
Fri 12:55:13 PM 34.4572 -77.4861 13° North 502 578 46,900  Level Washington Center
Fri 12:56:12 PM 34.5914 -77.4414 15° North 502 578 46,900  Level Washington Center
Fri 12:57:12 PM 34.7219 -77.3736 23° Northeast 502 578 46,900 50 Level Washington Center
Fri 12:58:11 PM 34.8481 -77.3028 25° Northeast 497 572 47,000 50 Climbing Washington Center
Fri 12:59:11 PM 34.9744 -77.2294 25° Northeast 492 566 47,000  Level Washington Center
Fri 01:00:12 PM 35.1011 -77.1128 37° Northeast 506 582 47,000  Level Washington Center
Fri 01:01:13 PM 35.1881 -76.9925 48° Northeast 506 582 47,000  Level Washington Center
Fri 01:02:11 PM 35.2958 -76.8747 42° Northeast 511 588 47,000 -51 Level Washington Center
Fri 01:03:11 PM 35.4014 -76.7592 42° Northeast 511 588 46,900 -50 Descending Washington Center
Fri 01:04:11 PM 35.5108 -76.6458 40° Northeast 511 588 46,900  Level Washington Center
Fri 01:05:12 PM 35.6386 -76.5733 25° Northeast 511 588 46,900  Level Washington Center
Fri 01:06:12 PM 35.7728 -76.5239 17° North 496 571 46,900  Level Washington Center
Fri 01:07:11 PM 35.9067 -76.4767 16° North 496 571 46,900  Level Washington Center
Fri 01:08:11 PM 36.0383 -76.4242 18° North 491 565 46,900  Level Washington Center
Fri 01:09:12 PM 36.1703 -76.3742 17° North 491 565 46,900  Level Washington Center
Fri 01:10:13 PM 36.3019 -76.3239 17° North 491 565 46,900  Level Washington Center
Fri 01:11:11 PM 36.4358 -76.2736 17° North 496 571 46,900  Level Washington Center
Fri 01:12:12 PM 36.5675 -76.2231 17° North 496 571 46,900  Level Washington Center
Fri 01:13:13 PM 36.6950 -76.1775 16° North 491 565 46,900 50 Level Washington Center
Fri 01:14:11 PM 36.8267 -76.1186 20° North 491 565 47,000 50 Climbing Washington Center
Fri 01:15:12 PM 36.9583 -76.0675 17° North 491 565 47,000 -50 Level Washington Center
Fri 01:16:12 PM 37.1067 -76.0139 16° North 491 565 46,900 -51 Descending Washington Center
Fri 01:17:10 PM 37.2361 -75.9622 18° North 491 565 46,900  Level Washington Center
Fri 01:18:11 PM 37.3678 -75.9106 17° North 491 565 46,900  Level Washington Center
Fri 01:19:11 PM 37.4972 -75.8561 18° North 486 559 46,900  Level Washington Center
Fri 01:20:12 PM 37.6267 -75.8067 17° North 486 559 46,900  Level Washington Center
Fri 01:21:12 PM 37.7558 -75.7519 19° North 481 554 46,900  Level Washington Center
Fri 01:22:10 PM 37.8875 -75.7022 17° North 481 554 46,900  Level Washington Center
Fri 01:23:11 PM 38.0167 -75.6497 18° North 481 554 46,900 49 Level Washington Center
Fri 01:24:12 PM 38.1419 -75.5944 19° North 475 547 47,000 49 Climbing Washington Center
Fri 01:25:13 PM 38.2711 -75.5389 19° North 475 547 47,000 -50 Level Washington Center
Fri 01:26:11 PM 38.3858 -75.4936 17° North 475 547 46,900 -50 Descending Washington Center
Fri 01:27:12 PM 38.5150 -75.4406 18° North 480 552 46,900  Level Washington Center
Fri 01:28:12 PM 38.6419 -75.3869 18° North 480 552 46,900  Level Washington Center
Fri 01:29:12 PM 38.7711 -75.3361 17° North 480 552 46,900  Level Washington Center
Fri 01:30:13 PM 38.9003 -75.2769 20° North 480 552 46,900  Level Washington Center
Fri 01:31:13 PM 39.0125 -75.1828 33° Northeast 480 552 46,900  Level Washington Center
Fri 01:32:11 PM 39.1206 -75.0725 38° Northeast 485 558 46,900  Level Washington Center
Fri 01:33:11 PM 39.2283 -74.9592 39° Northeast 490 564 46,900 -446 Level Washington Center
Fri 01:34:12 PM 39.3383 -74.8483 38° Northeast 496 571 46,000 -1,835 Descending Washington Center
Fri 01:35:12 PM 39.4436 -74.7369 39° Northeast 496 571 43,200 -1,382 Descending Washington Center
Fri 01:37:23 PM 39.6708 -74.5117 37° Northeast 494 568 41,600 -1,206 Descending New York Center
Fri 01:38:21 PM 39.7722 -74.3956 41° Northeast 489 563 39,400 -2,824 Descending New York Center
Fri 01:39:22 PM 39.8822 -74.2794 39° Northeast 474 545 36,000 -3,049 Descending New York Center
Fri 01:40:23 PM 39.9789 -74.1786 39° Northeast 458 527 33,200 -2,777 Descending New York Center
Fri 01:41:23 PM 40.0778 -74.0750 39° Northeast 451 519 30,400 -2,400 Descending New York Center
Fri 01:42:23 PM 40.1700 -73.9761 39° Northeast 439 505 28,400 -1,462 Descending New York Center
Fri 01:43:22 PM 40.2583 -73.8769 41° Northeast 429 494 27,500 -857 Descending New York Center
Fri 01:44:22 PM 40.3439 -73.7936 37° Northeast 424 488 26,700 -916 Descending New York Center
Fri 01:46:32 PM 40.5506 -73.5625 40° Northeast 435 501 24,600 -947 Descending Boston Center
Fri 01:47:32 PM 40.6411 -73.4656 39° Northeast 430 495 23,700 -850 Descending Boston Center
Fri 01:48:32 PM 40.7272 -73.3686 41° Northeast 418 481 22,900 -350 Descending Boston Center
Fri 01:49:00 PM 40.7788 -73.3053 41° Northeast  Level FlightAware Approximate
Fri 01:49:32 PM 40.8197 -73.2767 37° Northeast 412 474 23,000  Level Boston Center
Fri 01:50:32 PM 40.9081 -73.1733 41° Northeast 412 474 22,500 -500 Descending Boston Center
Fri 01:51:32 PM 40.9961 -73.0697 42° Northeast 412 474 22,000 -700 Descending Boston Center
Fri 01:52:32 PM 41.0819 -72.9689 42° Northeast 412 474 21,100 -1,050 Descending Boston Center
Fri 01:53:32 PM 41.1719 -72.8758 38° Northeast 412 474 19,900 -1,200 Descending Boston Center
Fri 01:54:32 PM 41.2639 -72.8072 29° Northeast 413 475 18,700 -1,000 Descending Boston Center
Fri 01:55:32 PM 41.3767 -72.7361 25° Northeast 402 463 17,900 -850 Descending Boston Center
Fri 01:56:32 PM 41.4561 -72.6811 27° Northeast 407 468 17,000 -1,200 Descending Boston Center
Fri 01:57:32 PM 41.5792 -72.5956 27° Northeast 407 468 15,500 -1,300 Descending Boston Center
Fri 01:58:32 PM 41.6625 -72.5233 33° Northeast 399 459 14,400 -1,154 Descending Boston Center
Fri 01:58:50 PM 41.6981 -72.4872 37° Northeast 391 450 14,000 -1,300 Descending Boston Center
Fri 01:59:32 PM 41.7564 -72.4233 39° Northeast 386 444 13,100 -1,233 Descending Boston Center
Fri 02:00:03 PM 41.7981 -72.3789 38° Northeast 380 437 12,500 -1,200 Descending Boston Center
Fri 02:00:32 PM 41.8272 -72.3453 41° Northeast 375 432 11,900 -1,377 Descending Boston Center
Fri 02:01:04 PM 41.8750 -72.2894 41° Northeast 370 426 11,100 -900 Descending Boston Center
Fri 02:01:32 PM 41.9125 -72.2503 38° Northeast 370 426 11,000 -197 Descending Boston Center
Fri 02:02:05 PM 41.9542 -72.2028 40° Northeast 363 418 10,900 -400 Descending Boston Center
Fri 02:02:32 PM 41.9769 -72.1747 42° Northeast 353 406 10,600 -1,100 Descending Boston Center
Fri 02:03:05 PM 42.0164 -72.1328 38° Northeast 292 336 9,800 -1,600 Descending Boston Center
Fri 02:03:32 PM 42.0414 -72.1019 42° Northeast 296 341 9,000 -1,791 Descending Boston Center
Fri 02:04:12 PM 42.0808 -72.0569 40° Northeast 270 311 7,800 -1,700 Descending Boston Center
Fri 02:04:32 PM 42.0933 -72.0428 40° Northeast 260 299 7,300 -1,672 Descending Boston Center
Fri 02:05:13 PM 42.1369 -71.9950 39° Northeast 256 295 6,100 -1,800 Descending Boston Center
Fri 02:05:32 PM 42.1514 -71.9781 41° Northeast 252 290 5,500 -1,091 Descending Boston Center
Fri 02:06:08 PM 42.1847 -71.9414 39° Northeast 247 284 5,100 -600 Descending Boston Center
Fri 02:06:32 PM 42.1992 -71.9244 41° Northeast 252 290 4,900 -100 Descending Boston Center
Fri 02:07:08 PM 42.2386 -71.8847 37° Northeast 246 283 5,000 100 Climbing Boston Center
Fri 02:07:32 PM 42.2592 -71.8567 45° Northeast 252 290 5,000  Level Boston Center
Fri 02:08:32 PM 42.3047 -71.8056 40° Northeast 246 283 5,000  Level Boston Center
Fri 02:09:32 PM 42.3628 -71.7406 40° Northeast 246 283 5,000 -450 Level Boston Center
Fri 02:10:32 PM 42.4019 -71.6753 51° Northeast 239 275 4,100 -1,069 Descending Boston Center
Fri 02:11:13 PM 42.4333 -71.6167 54° Northeast 237 273 3,200 -688 Descending KA90
Fri 02:12:08 PM 42.4667 -71.5500 56° Northeast 232 267 3,000 -104 Descending KA90
Fri 02:13:08 PM 42.4833 -71.5000 66° East 171 197 3,000 -381 Level KA90
Fri 02:14:14 PM 42.4833 -71.4333 90° East 151 174 2,200 -768 Descending KA90
Fri 02:15:13 PM 42.4833 -71.3833 90° East 160 184 1,400 -842 Descending KA90
Fri 02:16:08 PM 42.4833 -71.3333 90° East 145 167 600 -873 Descending KA90

Login

Don't have an account? Register now (free) for customized features, flight alerts, and more!